Time;durP1;ratioP1;P1;durP2;ratioP2;P2;SDS_P1;SDS_P2;PMS_P1;PMS_P2;Temp;Humidity;BMP_temperature;BMP_pressure;BME280_temperature;BME280_humidity;BME280_pressure;Samples;Min_cycle;Max_cycle;Signal;HPM_P1;HPM_P2
2022/06/26 00:01:40;;;;;;;8.55;5.70;;;20.70;99.90;;;;;;4955795;29;20106;-68
2022/06/26 00:04:06;;;;;;;6.95;5.45;;;20.70;99.90;;;;;;4955744;29;20369;-68
2022/06/26 00:06:32;;;;;;;8.57;5.53;;;20.70;99.90;;;;;;4955666;29;20102;-69
2022/06/26 00:08:57;;;;;;;7.55;5.60;;;20.60;99.90;;;;;;4955575;28;20087;-69
2022/06/26 00:11:23;;;;;;;6.93;5.55;;;20.60;99.90;;;;;;4955575;29;20035;-68
2022/06/26 00:13:50;;;;;;;6.40;5.20;;;20.60;99.90;;;;;;4955935;29;20461;-69
2022/06/26 00:16:16;;;;;;;6.65;5.00;;;20.60;99.90;;;;;;4955410;29;20039;-68
2022/06/26 00:18:42;;;;;;;8.32;4.80;;;20.60;99.90;;;;;;4955308;28;20028;-69
2022/06/26 00:21:09;;;;;;;6.15;4.57;;;20.60;99.90;;;;;;4955297;29;20419;-68
2022/06/26 00:23:35;;;;;;;5.88;4.22;;;20.60;99.90;;;;;;4954582;29;20481;-68
2022/06/26 00:26:02;;;;;;;6.50;4.18;;;20.60;99.90;;;;;;4955217;29;20113;-68
2022/06/26 00:28:28;;;;;;;6.28;3.78;;;20.60;99.90;;;;;;4955272;28;20031;-68
2022/06/26 00:30:54;;;;;;;7.05;4.20;;;20.60;99.90;;;;;;4954814;28;20404;-69
2022/06/26 00:33:20;;;;;;;6.95;4.13;;;20.60;99.90;;;;;;4954968;29;20642;-69
2022/06/26 00:35:46;;;;;;;7.25;4.53;;;20.70;99.90;;;;;;4955041;29;20035;-69
2022/06/26 00:38:12;;;;;;;7.25;4.60;;;20.70;99.90;;;;;;4955001;28;20026;-68
2022/06/26 00:40:40;;;;;;;7.82;5.03;;;20.60;99.90;;;;;;4955219;29;20038;-69
2022/06/26 00:43:07;;;;;;;7.18;4.57;;;20.60;99.90;;;;;;4953691;29;20046;-69
2022/06/26 00:45:33;;;;;;;6.80;4.35;;;20.60;99.90;;;;;;4955082;29;20028;-69
2022/06/26 00:47:59;;;;;;;8.50;4.30;;;20.60;99.90;;;;;;4953294;28;20125;-69
2022/06/26 00:50:25;;;;;;;5.88;4.13;;;20.60;99.90;;;;;;4953432;29;20035;-68
2022/06/26 00:52:54;;;;;;;5.75;4.07;;;20.50;99.90;;;;;;4954906;29;20030;-69
2022/06/26 00:55:20;;;;;;;6.05;3.95;;;20.40;99.90;;;;;;4954807;29;20481;-69
2022/06/26 00:57:46;;;;;;;6.57;4.10;;;20.40;99.90;;;;;;4954503;28;20027;-68
2022/06/26 01:00:14;;;;;;;6.18;4.47;;;20.40;99.90;;;;;;4953316;29;20500;-69
2022/06/26 01:02:40;;;;;;;4.97;4.32;;;20.40;99.90;;;;;;4953424;29;20311;-69
2022/06/26 01:05:08;;;;;;;6.70;4.13;;;20.40;99.90;;;;;;4953512;29;20024;-69
2022/06/26 01:07:34;;;;;;;4.95;3.63;;;20.40;99.90;;;;;;4953293;28;20102;-69
2022/06/26 01:10:01;;;;;;;6.50;4.05;;;20.40;99.90;;;;;;4954310;29;20022;-68
2022/06/26 01:12:27;;;;;;;7.75;3.65;;;20.50;99.90;;;;;;4953243;29;20447;-69
2022/06/26 01:14:55;;;;;;;8.88;3.97;;;20.40;99.90;;;;;;4953117;29;20110;-69
2022/06/26 01:17:21;;;;;;;8.32;5.07;;;20.40;99.90;;;;;;4952888;28;20424;-68
2022/06/26 01:19:48;;;;;;;6.50;4.00;;;20.40;99.90;;;;;;4952783;29;20034;-68
2022/06/26 01:22:14;;;;;;;6.28;3.75;;;20.40;99.90;;;;;;4953121;29;20058;-69
2022/06/26 01:24:40;;;;;;;7.20;4.25;;;20.40;99.90;;;;;;4954213;29;20476;-69
2022/06/26 01:27:06;;;;;;;7.35;3.80;;;20.40;99.90;;;;;;4952760;29;20042;-69
2022/06/26 01:29:32;;;;;;;6.57;3.85;;;20.30;99.90;;;;;;4952699;28;20042;-69
2022/06/26 01:31:58;;;;;;;5.97;4.32;;;20.30;99.90;;;;;;4953962;29;20031;-69
2022/06/26 01:34:24;;;;;;;6.32;4.20;;;20.30;99.90;;;;;;4952867;29;20029;-68
2022/06/26 01:36:56;;;;;;;5.47;4.00;;;20.20;99.90;;;;;;4952642;29;20130;-69
2022/06/26 01:39:22;;;;;;;5.25;4.15;;;20.20;99.90;;;;;;4952562;28;20428;-69
2022/06/26 01:41:49;;;;;;;7.53;4.03;;;20.20;99.90;;;;;;4952616;29;20035;-69
2022/06/26 01:44:16;;;;;;;7.03;3.95;;;20.20;99.90;;;;;;4951669;28;20046;-69
2022/06/26 01:46:42;;;;;;;7.00;4.07;;;20.20;99.90;;;;;;4952502;29;20042;-69
2022/06/26 01:49:08;;;;;;;6.60;4.45;;;20.20;99.90;;;;;;4952363;28;20062;-69
2022/06/26 01:51:37;;;;;;;4.38;3.97;;;20.20;99.90;;;;;;4952528;29;20041;-68
2022/06/26 01:54:03;;;;;;;7.15;5.03;;;20.20;99.90;;;;;;4953784;29;20115;-68
2022/06/26 01:56:30;;;;;;;10.95;5.82;;;20.30;99.90;;;;;;4952326;29;20134;-68
2022/06/26 01:58:56;;;;;;;6.45;4.60;;;20.30;99.90;;;;;;4952098;28;20480;-68
2022/06/26 02:01:31;;;;;;;7.03;5.97;;;20.30;99.90;;;;;;4952538;29;20694;-68
2022/06/26 02:03:57;;;;;;;5.88;5.25;;;20.30;99.90;;;;;;4952413;29;20028;-69
2022/06/26 02:06:23;;;;;;;7.93;5.65;;;20.30;99.90;;;;;;4953492;29;20034;-68
2022/06/26 02:08:49;;;;;;;8.65;5.15;;;20.30;99.90;;;;;;4952022;28;20274;-69
2022/06/26 02:14:01;;;;;;;11.05;6.57;;;20.20;99.90;;;;;;4952179;29;20050;-68
2022/06/26 02:16:36;;;;;;;11.00;7.10;;;20.20;99.90;;;;;;4951984;29;20034;-68
2022/06/26 02:19:05;;;;;;;9.02;6.95;;;20.20;99.90;;;;;;4951893;28;20460;-69
2022/06/26 02:21:31;;;;;;;10.23;8.23;;;20.20;99.90;;;;;;4953146;28;20033;-69
2022/06/26 02:23:59;;;;;;;9.07;6.75;;;20.20;99.90;;;;;;4952069;29;20031;-69
2022/06/26 02:26:25;;;;;;;12.88;8.45;;;20.10;99.90;;;;;;4951973;29;20090;-69
2022/06/26 02:28:55;;;;;;;9.85;8.00;;;20.10;99.90;;;;;;4953266;28;20114;-69
2022/06/26 02:31:21;;;;;;;10.13;8.15;;;20.10;99.90;;;;;;4953121;29;20131;-68
2022/06/26 02:33:48;;;;;;;11.45;8.60;;;20.10;99.90;;;;;;4952000;29;20515;-69
2022/06/26 02:36:14;;;;;;;10.32;7.82;;;20.10;99.90;;;;;;4951617;29;20038;-69
2022/06/26 02:38:41;;;;;;;9.30;7.65;;;20.10;99.90;;;;;;4952939;28;20440;-69
2022/06/26 02:41:07;;;;;;;10.52;7.97;;;20.10;99.90;;;;;;4953029;29;20031;-69
2022/06/26 02:43:34;;;;;;;9.75;7.53;;;20.00;99.90;;;;;;4951726;29;20027;-69
2022/06/26 02:46:03;;;;;;;9.85;7.90;;;20.00;99.90;;;;;;4951635;29;20034;-68
2022/06/26 02:48:29;;;;;;;11.55;7.30;;;20.00;99.90;;;;;;4952967;28;20027;-68
2022/06/26 02:50:55;;;;;;;14.05;8.20;;;20.00;99.90;;;;;;4951432;29;20039;-68
2022/06/26 02:53:22;;;;;;;10.45;8.40;;;19.90;99.90;;;;;;4952830;29;20023;-69
2022/06/26 02:55:50;;;;;;;8.88;7.45;;;19.90;99.90;;;;;;4956588;28;20399;-68
2022/06/26 02:58:16;;;;;;;8.80;7.85;;;19.90;99.90;;;;;;4958008;28;20093;-68
2022/06/26 03:00:56;;;;;;;10.48;8.18;;;19.90;99.90;;;;;;4957936;29;20062;-68
2022/06/26 03:03:23;;;;;;;11.88;8.30;;;19.90;99.90;;;;;;4957831;28;20034;-68
2022/06/26 03:05:49;;;;;;;10.30;8.60;;;19.90;99.90;;;;;;4957714;29;20027;-68
2022/06/26 03:08:14;;;;;;;10.52;8.75;;;19.90;99.90;;;;;;4958133;28;20042;-69
2022/06/26 03:10:41;;;;;;;11.82;8.45;;;19.80;99.90;;;;;;4957753;28;20046;-68
2022/06/26 03:13:07;;;;;;;11.48;8.43;;;19.80;99.90;;;;;;4959114;29;20388;-68
2022/06/26 03:15:33;;;;;;;8.60;7.60;;;19.80;99.90;;;;;;4957898;28;20031;-69
2022/06/26 03:18:02;;;;;;;9.82;6.95;;;19.80;99.90;;;;;;4957902;28;20074;-68
2022/06/26 03:20:29;;;;;;;10.25;7.47;;;19.80;99.90;;;;;;4979128;23;20082;-82
2022/06/26 03:22:55;;;;;;;9.07;7.68;;;19.70;99.90;;;;;;4957813;29;20399;-83
2022/06/26 03:25:21;;;;;;;10.07;7.05;;;19.70;99.90;;;;;;4957589;29;20035;-83
2022/06/26 03:27:50;;;;;;;8.65;7.15;;;19.70;99.90;;;;;;4957427;28;20399;-83
2022/06/26 03:30:18;;;;;;;8.85;6.90;;;19.70;99.90;;;;;;4957122;28;20031;-83
2022/06/26 03:32:48;;;;;;;8.57;6.85;;;19.70;99.90;;;;;;4957471;29;20027;-83
2022/06/26 03:35:13;;;;;;;10.45;7.10;;;19.80;99.90;;;;;;4958735;28;20027;-83
2022/06/26 03:37:39;;;;;;;8.18;6.60;;;19.70;99.90;;;;;;4957296;29;20029;-83
2022/06/26 03:40:08;;;;;;;9.55;6.70;;;19.70;99.90;;;;;;4957068;28;20031;-83
2022/06/26 03:42:34;;;;;;;9.82;7.43;;;19.70;99.90;;;;;;4957400;28;20031;-83
2022/06/26 03:45:00;;;;;;;10.05;7.15;;;19.70;99.90;;;;;;4957273;29;20034;-83
2022/06/26 03:47:26;;;;;;;11.65;7.05;;;19.70;99.90;;;;;;4957197;29;20500;-83
2022/06/26 03:49:54;;;;;;;9.43;7.30;;;19.70;99.90;;;;;;4957123;28;20502;-82
2022/06/26 03:52:22;;;;;;;9.52;7.03;;;19.70;99.90;;;;;;4957230;28;20042;-83
2022/06/26 03:54:49;;;;;;;9.60;7.60;;;19.70;99.90;;;;;;4957447;28;20027;-83
2022/06/26 03:57:18;;;;;;;8.82;7.43;;;19.70;99.90;;;;;;4957080;29;20031;-82
2022/06/26 03:59:44;;;;;;;11.52;6.80;;;19.70;99.90;;;;;;4956973;28;20377;-82
2022/06/26 04:02:15;;;;;;;9.68;7.75;;;19.70;99.90;;;;;;4957230;28;20115;-82
2022/06/26 04:04:41;;;;;;;12.23;8.38;;;19.70;99.90;;;;;;4957032;28;20062;-83
2022/06/26 04:07:12;;;;;;;10.30;7.65;;;19.80;99.90;;;;;;4953825;28;20035;-82
2022/06/26 04:09:39;;;;;;;11.38;8.23;;;19.70;99.90;;;;;;4938201;28;20571;-82
2022/06/26 04:12:07;;;;;;;10.77;8.10;;;19.80;99.90;;;;;;4953887;29;20035;-83
2022/06/26 04:14:36;;;;;;;9.90;8.23;;;19.80;99.90;;;;;;4938755;29;20035;-83
2022/06/26 04:17:02;;;;;;;13.30;9.07;;;19.80;99.90;;;;;;4953912;29;20038;-83
2022/06/26 04:19:28;;;;;;;14.35;9.18;;;19.80;99.90;;;;;;4953837;28;20031;-83
2022/06/26 04:21:57;;;;;;;;;;;19.80;99.90;;;;;;4954385;29;20066;-83
2022/06/26 04:24:23;;;;;;;11.35;9.60;;;19.80;99.90;;;;;;4953973;29;19957;-83
2022/06/26 04:26:49;;;;;;;12.45;8.85;;;19.80;99.90;;;;;;4937605;29;20078;-83
2022/06/26 04:29:15;;;;;;;11.65;8.23;;;19.80;99.90;;;;;;4953603;29;20066;-83
2022/06/26 04:31:41;;;;;;;12.90;8.15;;;19.80;99.90;;;;;;4953593;28;20066;-83
2022/06/26 04:34:07;;;;;;;11.50;8.30;;;19.80;99.90;;;;;;4953774;29;20039;-83
2022/06/26 04:36:35;;;;;;;12.70;8.67;;;19.80;99.90;;;;;;4953453;29;20023;-82
2022/06/26 04:39:01;;;;;;;11.02;7.68;;;19.80;99.90;;;;;;4953385;29;20279;-83
2022/06/26 04:41:36;;;;;;;11.40;7.57;;;19.80;99.90;;;;;;4953385;28;20094;-83
2022/06/26 04:44:08;;;;;;;11.80;8.00;;;19.80;99.90;;;;;;4953740;29;20439;-83
2022/06/26 04:46:35;;;;;;;12.52;7.07;;;19.80;99.90;;;;;;4953321;29;20125;-83
2022/06/26 04:49:01;;;;;;;10.52;7.50;;;19.80;99.90;;;;;;4953376;29;20031;-83
2022/06/26 04:51:27;;;;;;;9.02;6.90;;;19.80;99.90;;;;;;4937316;29;20168;-82
2022/06/26 04:53:55;;;;;;;9.10;6.13;;;19.80;99.90;;;;;;4953452;29;20563;-82
2022/06/26 04:56:21;;;;;;;10.88;7.20;;;19.70;99.90;;;;;;4953046;29;20324;-83
2022/06/26 04:58:58;;;;;;;9.98;6.93;;;19.80;99.90;;;;;;4953284;29;20066;-83
2022/06/26 05:01:26;;;;;;;11.93;6.60;;;19.80;99.90;;;;;;4953168;28;20031;-83
2022/06/26 05:04:06;;;;;;;8.90;4.97;;;19.80;99.90;;;;;;4953054;29;20057;-83
2022/06/26 05:06:46;;;;;;;6.50;4.38;;;19.80;99.90;;;;;;4952927;29;20450;-82
2022/06/26 05:09:20;;;;;;;11.45;4.70;;;19.70;99.90;;;;;;4952925;29;20027;-83
2022/06/26 05:11:47;;;;;;;7.25;3.85;;;19.70;99.90;;;;;;4953365;28;20039;-82
2022/06/26 05:14:15;;;;;;;7.35;4.85;;;19.60;99.90;;;;;;4952973;29;20487;-83
2022/06/26 05:16:49;;;;;;;7.30;4.68;;;19.60;99.90;;;;;;4952770;29;20027;-83
2022/06/26 05:19:16;;;;;;;6.28;4.30;;;19.60;99.90;;;;;;4936998;29;20127;-83
2022/06/26 05:21:43;;;;;;;5.95;3.42;;;19.60;99.90;;;;;;4952690;28;20043;-83
2022/06/26 05:24:09;;;;;;;8.02;4.45;;;19.50;99.90;;;;;;4952933;29;20406;-83
2022/06/26 05:26:39;;;;;;;6.53;3.28;;;19.50;99.90;;;;;;4952569;29;20043;-83
2022/06/26 05:29:05;;;;;;;6.32;3.70;;;19.50;99.90;;;;;;4952839;29;20116;-82
2022/06/26 05:31:31;;;;;;;6.50;3.55;;;19.50;99.90;;;;;;4952649;28;20035;-83
2022/06/26 05:33:59;;;;;;;9.60;3.83;;;19.50;99.90;;;;;;4936995;29;20019;-83
2022/06/26 05:36:25;;;;;;;5.47;3.30;;;19.60;99.90;;;;;;4952339;29;20034;-83
2022/06/26 05:38:50;;;;;;;8.23;3.40;;;19.60;99.90;;;;;;4936500;29;20031;-83
2022/06/26 05:41:17;;;;;;;5.68;3.70;;;19.60;99.90;;;;;;4952484;28;20620;-83
2022/06/26 05:43:44;;;;;;;4.90;3.20;;;19.60;99.90;;;;;;4952800;29;20031;-83
2022/06/26 05:46:11;;;;;;;5.30;2.88;;;19.50;99.90;;;;;;4952209;29;20035;-83
2022/06/26 05:48:55;;;;;;;8.23;3.95;;;19.50;99.90;;;;;;4952385;29;20046;-83
2022/06/26 05:51:30;;;;;;;5.32;3.40;;;19.50;99.90;;;;;;4937773;29;20039;-83
2022/06/26 05:54:07;;;;;;;4.88;3.25;;;19.50;99.90;;;;;;4952206;29;20042;-83
2022/06/26 05:56:55;;;;;;;;;;;19.50;99.90;;;;;;4953668;28;20071;-82
2022/06/26 05:59:38;;;;;;;8.23;2.92;;;19.50;99.90;;;;;;4952116;28;19911;-82
2022/06/26 06:02:22;;;;;;;5.03;2.90;;;19.50;99.90;;;;;;4953381;29;20484;-83
2022/06/26 06:04:48;;;;;;;6.72;3.00;;;19.50;99.90;;;;;;4936199;29;20059;-82
2022/06/26 06:07:14;;;;;;;8.15;4.43;;;19.50;99.90;;;;;;4936199;29;20035;-84
2022/06/26 06:09:40;;;;;;;8.93;3.83;;;19.40;99.90;;;;;;4951796;28;20035;-84
2022/06/26 06:12:10;;;;;;;6.47;3.13;;;19.40;99.90;;;;;;4951881;29;20029;-84
2022/06/26 06:14:36;;;;;;;8.07;4.18;;;19.40;99.90;;;;;;4952116;29;20186;-84
2022/06/26 06:17:35;;;;;;;9.10;3.42;;;19.30;99.90;;;;;;4935817;29;20034;-84
2022/06/26 06:19:49;;;;;;;5.28;3.15;;;19.30;99.90;;;;;;4951416;28;20114;-84
2022/06/26 06:22:18;;;;;;;7.97;3.85;;;19.30;99.90;;;;;;4951812;29;20039;-84
2022/06/26 06:24:45;;;;;;;6.65;3.92;;;19.30;99.90;;;;;;4951659;29;20046;-84
2022/06/26 06:27:11;;;;;;;8.27;3.65;;;19.30;99.90;;;;;;4952800;29;20384;-83
2022/06/26 06:29:37;;;;;;;5.70;3.38;;;19.30;99.90;;;;;;4950918;28;20035;-84
2022/06/26 06:32:03;;;;;;;7.55;3.90;;;19.30;99.90;;;;;;4952803;29;20090;-84
2022/06/26 06:34:28;;;;;;;6.40;3.30;;;19.30;99.90;;;;;;4951594;29;20031;-84
2022/06/26 06:36:54;;;;;;;5.82;3.60;;;19.30;99.90;;;;;;4952976;29;20027;-84
2022/06/26 06:39:22;;;;;;;8.35;4.15;;;19.30;99.90;;;;;;4951277;29;20031;-84
2022/06/26 06:41:52;;;;;;;7.68;4.13;;;19.30;99.90;;;;;;4951624;29;20471;-84
2022/06/26 06:44:17;;;;;;;9.07;4.80;;;19.30;99.90;;;;;;4951725;29;20035;-84
2022/06/26 06:47:04;;;;;;;8.00;4.43;;;19.30;99.90;;;;;;4951836;29;20047;-84
2022/06/26 06:49:36;;;;;;;7.85;3.85;;;19.30;99.90;;;;;;4951291;28;20054;-83
2022/06/26 06:52:09;;;;;;;7.03;3.75;;;19.40;99.90;;;;;;4951503;29;20118;-83
2022/06/26 06:54:35;;;;;;;7.45;4.10;;;19.50;99.90;;;;;;4951335;29;20118;-83
2022/06/26 06:57:01;;;;;;;6.72;3.80;;;19.50;99.90;;;;;;4951160;29;20023;-84
2022/06/26 06:59:27;;;;;;;6.35;3.95;;;19.50;99.90;;;;;;4952715;28;20035;-83
2022/06/26 07:01:53;;;;;;;5.38;3.58;;;19.60;99.90;;;;;;4952626;29;20118;-84
2022/06/26 07:04:19;;;;;;;8.05;4.32;;;19.70;99.90;;;;;;4951484;29;20174;-83
2022/06/26 07:06:45;;;;;;;8.10;3.83;;;19.70;99.90;;;;;;4951205;29;20522;-83
2022/06/26 07:09:11;;;;;;;6.72;3.50;;;19.70;99.90;;;;;;4935053;29;20122;-84
2022/06/26 07:11:38;;;;;;;5.93;3.40;;;19.80;99.90;;;;;;4951161;28;20174;-83
2022/06/26 07:14:03;;;;;;;5.85;2.60;;;19.80;99.90;;;;;;4953101;29;20054;-83
2022/06/26 07:16:29;;;;;;;5.35;3.30;;;19.80;99.90;;;;;;4952501;29;20632;-83
2022/06/26 07:18:55;;;;;;;5.57;2.80;;;19.90;99.90;;;;;;4952366;29;20484;-83
2022/06/26 07:21:21;;;;;;;6.05;3.22;;;19.90;99.90;;;;;;4950984;28;20518;-83
2022/06/26 07:23:47;;;;;;;5.35;3.30;;;19.90;99.90;;;;;;4935238;29;20109;-83
2022/06/26 07:26:48;;;;;;;8.35;3.45;;;20.00;99.90;;;;;;4942123;29;20043;-83
2022/06/26 07:29:15;;;;;;;7.53;3.50;;;20.00;99.90;;;;;;4950866;29;20032;-83
2022/06/26 07:31:43;;;;;;;6.70;2.70;;;20.10;99.90;;;;;;4950818;28;20054;-83
2022/06/26 07:34:13;;;;;;;6.22;3.35;;;20.10;99.90;;;;;;4951024;29;20034;-83
2022/06/26 07:36:43;;;;;;;5.10;2.55;;;20.20;99.90;;;;;;4934919;29;20027;-83
2022/06/26 07:39:12;;;;;;;4.03;1.88;;;20.10;99.90;;;;;;4952078;29;20028;-83
2022/06/26 07:41:40;;;;;;;4.93;2.60;;;20.20;99.90;;;;;;4951648;28;20400;-83
2022/06/26 07:44:06;;;;;;;7.47;2.80;;;20.20;99.90;;;;;;4955913;29;20035;-83
2022/06/26 07:46:36;;;;;;;3.85;2.13;;;20.30;99.90;;;;;;4938976;29;20038;-83
2022/06/26 07:49:04;;;;;;;3.72;2.08;;;20.30;99.90;;;;;;4954426;29;20126;-83
2022/06/26 07:51:33;;;;;;;5.63;2.60;;;20.30;99.90;;;;;;4938751;29;20031;-83
2022/06/26 07:54:00;;;;;;;6.97;2.63;;;20.30;99.90;;;;;;4955720;29;20093;-83
2022/06/26 07:56:26;;;;;;;7.55;2.25;;;20.40;99.90;;;;;;4955524;29;20020;-83
2022/06/26 07:58:53;;;;;;;5.40;2.40;;;20.40;99.90;;;;;;4955847;29;20027;-83
2022/06/26 08:01:19;;;;;;;6.43;2.80;;;20.40;99.90;;;;;;4954186;28;20039;-83
2022/06/26 08:03:45;;;;;;;7.25;2.72;;;20.50;99.90;;;;;;4955457;29;20038;-83
2022/06/26 08:06:11;;;;;;;5.07;2.35;;;20.60;99.90;;;;;;4955387;29;20484;-83
2022/06/26 08:08:37;;;;;;;5.53;2.05;;;20.60;99.90;;;;;;4955666;29;20045;-83
2022/06/26 08:11:03;;;;;;;5.38;2.28;;;20.60;99.90;;;;;;4955188;28;20046;-83
2022/06/26 08:13:29;;;;;;;5.20;2.30;;;20.60;99.90;;;;;;4954971;29;20028;-83
2022/06/26 08:15:55;;;;;;;6.68;2.40;;;20.60;99.90;;;;;;4954835;28;20074;-83
2022/06/26 08:18:21;;;;;;;5.50;2.60;;;20.60;99.90;;;;;;4953823;29;20106;-83
2022/06/26 08:20:47;;;;;;;6.20;2.60;;;20.70;99.90;;;;;;4954700;28;20057;-83
2022/06/26 08:23:13;;;;;;;4.75;2.35;;;20.60;99.90;;;;;;4955144;29;20027;-83
2022/06/26 08:25:39;;;;;;;4.85;2.30;;;20.60;99.90;;;;;;4955333;29;20396;-83
2022/06/26 08:28:05;;;;;;;4.50;2.13;;;20.60;99.90;;;;;;4955199;29;20054;-83
2022/06/26 08:30:32;;;;;;;4.85;2.30;;;20.60;99.90;;;;;;4954579;28;20114;-83
2022/06/26 08:32:58;;;;;;;5.15;2.78;;;20.60;99.90;;;;;;4955009;29;20024;-83
2022/06/26 08:35:26;;;;;;;6.40;3.00;;;20.70;99.90;;;;;;4953533;29;20494;-83
2022/06/26 08:37:53;;;;;;;5.13;2.55;;;20.70;99.90;;;;;;4954759;29;20472;-83
2022/06/26 08:40:19;;;;;;;6.97;2.85;;;20.70;99.90;;;;;;4954402;28;20058;-83
2022/06/26 08:42:49;;;;;;;5.90;3.38;;;20.70;99.90;;;;;;4953336;29;20031;-83
2022/06/26 08:45:21;;;;;;;4.95;1.90;;;20.70;99.90;;;;;;4955059;29;20091;-84
2022/06/26 08:47:52;;;;;;;4.72;2.08;;;20.80;99.90;;;;;;4954505;29;20058;-83
2022/06/26 08:50:22;;;;;;;3.70;1.77;;;20.90;99.70;;;;;;4954402;28;20027;-83
2022/06/26 08:52:52;;;;;;;5.43;2.10;;;21.00;99.60;;;;;;4954149;28;20043;-83
2022/06/26 08:55:19;;;;;;;4.38;2.20;;;21.00;99.50;;;;;;4954670;29;20480;-83
2022/06/26 08:57:46;;;;;;;5.55;2.00;;;21.10;99.30;;;;;;4954322;29;20055;-83
2022/06/26 09:00:14;;;;;;;4.35;2.47;;;21.10;99.40;;;;;;4954273;28;20031;-83
2022/06/26 09:02:39;;;;;;;4.70;2.03;;;21.10;99.20;;;;;;4953295;29;20031;-83
2022/06/26 09:05:05;;;;;;;4.07;1.80;;;21.10;98.70;;;;;;4954464;29;20042;-84
2022/06/26 09:07:31;;;;;;;5.88;1.73;;;21.10;98.20;;;;;;4954259;29;20590;-83
2022/06/26 09:09:57;;;;;;;3.38;2.05;;;21.10;98.00;;;;;;4952690;28;20123;-84
2022/06/26 09:12:35;;;;;;;3.97;2.05;;;21.10;97.80;;;;;;4954414;29;20031;-83
2022/06/26 09:15:00;;;;;;;4.95;2.05;;;21.10;98.00;;;;;;4953273;29;20027;-83
2022/06/26 09:17:26;;;;;;;3.30;1.65;;;21.10;97.70;;;;;;4953997;29;20038;-83
2022/06/26 09:19:55;;;;;;;5.20;1.50;;;21.10;97.40;;;;;;4953706;28;20030;-83
2022/06/26 09:22:22;;;;;;;6.00;1.73;;;21.10;97.20;;;;;;4954066;29;20042;-83
2022/06/26 09:24:57;;;;;;;3.88;1.80;;;21.20;97.60;;;;;;4954112;29;20037;-83
2022/06/26 09:27:23;;;;;;;5.47;2.78;;;21.20;97.40;;;;;;4953805;29;20042;-83
2022/06/26 09:29:56;;;;;;;6.43;2.53;;;21.20;97.50;;;;;;4953681;28;20051;-83
2022/06/26 09:32:23;;;;;;;5.93;2.90;;;21.30;97.60;;;;;;4953997;29;20035;-83
2022/06/26 09:34:52;;;;;;;7.57;2.42;;;21.40;97.20;;;;;;4953847;29;20030;-83
2022/06/26 09:37:19;;;;;;;4.30;2.08;;;21.40;96.50;;;;;;4953916;29;20031;-83
2022/06/26 09:39:45;;;;;;;4.68;1.95;;;21.50;96.30;;;;;;4953575;28;20086;-83
2022/06/26 09:42:33;;;;;;;4.32;1.88;;;21.50;96.30;;;;;;4952439;29;20126;-83
2022/06/26 09:45:01;;;;;;;7.10;2.65;;;21.60;96.30;;;;;;4953785;28;20051;-83
2022/06/26 09:47:30;;;;;;;6.07;2.63;;;21.70;96.60;;;;;;4952226;29;20050;-83
2022/06/26 09:49:58;;;;;;;5.97;2.60;;;21.70;96.60;;;;;;4953306;28;20369;-83
2022/06/26 09:52:27;;;;;;;5.93;2.63;;;21.80;96.40;;;;;;4953729;28;20082;-84
2022/06/26 09:54:54;;;;;;;5.18;2.10;;;21.80;96.20;;;;;;4953654;29;20038;-83
2022/06/26 09:57:21;;;;;;;6.13;2.47;;;21.80;96.00;;;;;;4953378;29;20121;-83
2022/06/26 09:59:47;;;;;;;4.82;2.25;;;21.90;95.90;;;;;;4953088;28;20531;-83
2022/06/26 10:07:49;;;;;;;3.97;2.30;;;21.90;95.80;;;;;;4953096;28;20035;-83
2022/06/26 10:10:19;;;;;;;4.05;2.30;;;22.00;95.30;;;;;;4952922;28;20066;-83
2022/06/26 10:12:54;;;;;;;4.18;1.98;;;22.00;95.10;;;;;;4953771;29;20035;-83
2022/06/26 10:15:25;;;;;;;4.45;2.13;;;22.00;94.70;;;;;;4953092;29;20110;-84
2022/06/26 10:18:09;;;;;;;4.30;2.08;;;22.00;94.80;;;;;;4952890;29;20476;-84
2022/06/26 10:20:37;;;;;;;4.95;2.40;;;22.10;95.10;;;;;;4952611;28;20057;-83
2022/06/26 10:23:03;;;;;;;5.75;2.53;;;22.10;94.90;;;;;;4935769;29;20066;-83
2022/06/26 10:25:30;;;;;;;9.60;5.90;;;22.10;94.80;;;;;;4953141;29;20063;-83
2022/06/26 10:27:57;;;;;;;13.05;8.02;;;22.10;94.50;;;;;;4952716;29;20037;-83
2022/06/26 10:30:25;;;;;;;6.72;3.42;;;22.20;94.50;;;;;;4952543;28;20063;-84
2022/06/26 10:33:08;;;;;;;5.78;3.20;;;22.20;93.80;;;;;;4952872;29;20046;-83
2022/06/26 10:35:48;;;;;;;4.15;1.65;;;22.20;93.30;;;;;;4935649;29;20082;-84
2022/06/26 10:38:26;;;;;;;4.40;2.10;;;22.20;92.70;;;;;;4953188;29;20023;-83
2022/06/26 10:44:00;;;;;;;3.13;1.80;;;22.20;92.20;;;;;;4952627;28;20492;-83
2022/06/26 10:46:38;;;;;;;2.78;1.55;;;22.20;92.70;;;;;;4952753;28;20031;-84
2022/06/26 10:49:10;;;;;;;3.20;1.50;;;22.20;92.80;;;;;;4952766;29;20027;-83
2022/06/26 10:51:40;;;;;;;4.13;1.70;;;22.20;92.80;;;;;;4952687;28;20030;-83
2022/06/26 10:54:24;;;;;;;5.00;1.73;;;22.20;92.80;;;;;;4952726;29;20026;-83
2022/06/26 10:57:01;;;;;;;3.75;1.90;;;22.30;92.90;;;;;;4951459;29;20035;-84
2022/06/26 10:59:28;;;;;;;5.25;1.98;;;22.30;92.80;;;;;;4952575;28;20388;-84
2022/06/26 11:01:53;;;;;;;4.90;2.15;;;22.30;92.20;;;;;;4952791;28;20162;-84
2022/06/26 11:04:19;;;;;;;4.28;1.70;;;22.30;92.00;;;;;;4952752;29;20524;-84
2022/06/26 11:06:46;;;;;;;4.65;1.67;;;22.30;92.40;;;;;;4952372;29;20110;-83
2022/06/26 11:09:12;;;;;;;5.57;2.50;;;22.30;91.90;;;;;;4952769;29;20483;-83
2022/06/26 11:11:37;;;;;;;5.10;2.13;;;22.30;91.90;;;;;;4951208;28;20035;-84
2022/06/26 11:14:08;;;;;;;4.25;2.10;;;22.20;92.00;;;;;;4951497;29;20039;-84
2022/06/26 11:16:43;;;;;;;4.57;2.20;;;22.20;91.90;;;;;;4954961;28;20023;-84
2022/06/26 11:19:28;;;;;;;4.53;1.90;;;22.20;92.00;;;;;;4956151;29;20426;-84
2022/06/26 11:22:08;;;;;;;4.50;2.55;;;22.30;91.90;;;;;;4956304;29;20030;-84
2022/06/26 11:24:36;;;;;;;4.05;1.75;;;22.40;91.60;;;;;;4956379;29;20038;-83
2022/06/26 11:27:02;;;;;;;2.83;1.50;;;22.40;91.90;;;;;;4956210;29;20051;-83
2022/06/26 11:29:28;;;;;;;3.53;1.33;;;22.40;91.50;;;;;;4956252;28;20094;-83
2022/06/26 11:31:56;;;;;;;3.88;1.83;;;22.30;91.30;;;;;;4956265;29;20379;-84
2022/06/26 11:34:21;;;;;;;3.88;1.58;;;22.30;91.30;;;;;;4955417;29;20027;-83
2022/06/26 11:36:58;;;;;;;5.82;3.20;;;22.20;91.20;;;;;;4956325;29;20027;-84
2022/06/26 11:39:37;;;;;;;4.57;2.17;;;22.20;91.50;;;;;;4956561;29;20038;-83
2022/06/26 11:42:16;;;;;;;5.28;2.20;;;22.30;91.40;;;;;;4954964;29;20485;-83
2022/06/26 11:44:50;;;;;;;3.88;2.17;;;22.20;91.60;;;;;;4956315;29;20031;-84
2022/06/26 11:47:17;;;;;;;6.70;2.08;;;22.30;91.70;;;;;;4954910;29;20050;-84
2022/06/26 11:49:42;;;;;;;3.47;1.73;;;22.20;92.20;;;;;;4954686;28;20567;-83
2022/06/26 11:52:09;;;;;;;4.05;2.00;;;22.20;91.80;;;;;;4955961;29;20122;-84
2022/06/26 11:54:35;;;;;;;7.55;2.33;;;22.10;92.00;;;;;;4954707;29;20147;-84
2022/06/26 11:57:19;;;;;;;4.30;2.05;;;22.00;92.20;;;;;;4954618;29;20395;-84
2022/06/26 11:59:45;;;;;;;6.05;2.05;;;22.00;92.90;;;;;;4954600;28;20027;-84
2022/06/26 12:02:19;;;;;;;5.05;1.85;;;21.90;93.20;;;;;;4955859;29;20059;-84
2022/06/26 12:04:59;;;;;;;4.60;1.95;;;21.90;93.70;;;;;;4955798;29;20031;-84
2022/06/26 12:07:25;;;;;;;5.72;2.08;;;21.80;94.00;;;;;;4955650;29;20042;-83
2022/06/26 12:09:51;;;;;;;3.88;2.10;;;21.70;94.20;;;;;;4955650;28;20058;-83
2022/06/26 12:12:17;;;;;;;7.10;2.15;;;21.60;94.00;;;;;;4955684;29;20062;-83
2022/06/26 12:14:51;;;;;;;6.13;2.58;;;21.50;94.50;;;;;;4955792;29;20455;-83
2022/06/26 12:17:25;;;;;;;5.60;2.30;;;21.50;94.80;;;;;;4955459;29;20027;-83
2022/06/26 12:19:51;;;;;;;3.78;1.60;;;21.50;95.70;;;;;;4955240;28;20031;-82
2022/06/26 12:22:28;;;;;;;5.22;1.58;;;21.50;95.80;;;;;;4955589;29;20114;-83
2022/06/26 12:24:55;;;;;;;6.47;2.08;;;21.50;96.40;;;;;;4955587;29;20031;-83
2022/06/26 12:27:35;;;;;;;7.28;2.45;;;21.50;94.80;;;;;;4954558;28;20130;-83
2022/06/26 12:30:02;;;;;;;7.32;2.10;;;21.50;94.70;;;;;;4955077;28;20536;-83
2022/06/26 12:32:28;;;;;;;5.13;2.35;;;21.50;94.90;;;;;;4955452;29;20027;-83
2022/06/26 12:34:54;;;;;;;6.28;1.70;;;21.50;94.80;;;;;;4955544;29;20054;-83
2022/06/26 12:37:19;;;;;;;4.18;1.50;;;21.50;94.20;;;;;;4955190;29;20049;-83
2022/06/26 12:39:46;;;;;;;3.97;2.00;;;21.40;94.20;;;;;;4955017;28;20038;-83
2022/06/26 12:42:12;;;;;;;3.10;1.83;;;21.40;94.10;;;;;;4955372;29;20031;-83
2022/06/26 12:44:38;;;;;;;6.40;1.90;;;21.40;94.30;;;;;;4955148;29;20031;-83
2022/06/26 12:47:04;;;;;;;3.15;1.60;;;21.40;94.90;;;;;;4953841;29;20098;-83
2022/06/26 12:49:29;;;;;;;4.82;1.80;;;21.40;94.90;;;;;;4954894;28;20050;-83
2022/06/26 12:51:55;;;;;;;5.07;2.00;;;21.40;94.80;;;;;;4955148;29;20296;-83
2022/06/26 12:54:21;;;;;;;3.05;1.65;;;21.40;94.80;;;;;;4954983;29;20030;-83
2022/06/26 12:56:46;;;;;;;4.32;1.77;;;21.40;95.10;;;;;;4954877;29;20049;-83
2022/06/26 12:59:12;;;;;;;4.55;1.98;;;21.30;94.70;;;;;;4954729;29;20019;-83
2022/06/26 13:01:38;;;;;;;4.55;1.73;;;21.30;94.70;;;;;;4954689;28;20495;-83
2022/06/26 13:04:04;;;;;;;5.28;1.70;;;21.30;94.80;;;;;;4954785;29;20031;-83